createdAt,value
2024-04-25T00:00:45.731Z,5.65
2024-04-25T00:03:15.505Z,7.10
2024-04-25T00:05:48.023Z,5.07
2024-04-25T00:08:17.993Z,3.00
2024-04-25T00:10:47.784Z,4.88
2024-04-25T00:13:17.530Z,2.67
2024-04-25T00:15:47.308Z,4.10
2024-04-25T00:18:17.121Z,4.70
2024-04-25T00:20:49.783Z,3.47
2024-04-25T00:23:19.662Z,3.60
2024-04-25T00:25:49.998Z,5.38
2024-04-25T00:28:20.205Z,4.85
2024-04-25T00:30:52.100Z,5.30
2024-04-25T00:33:22.265Z,2.95
2024-04-25T00:35:54.861Z,5.00
2024-04-25T00:38:25.119Z,6.68
2024-04-25T00:40:55.112Z,3.50
2024-04-25T00:43:32.069Z,4.63
2024-04-25T00:46:02.539Z,6.05
2024-04-25T00:48:34.136Z,3.80
2024-04-25T00:51:10.126Z,3.25
2024-04-25T00:53:40.291Z,3.70
2024-04-25T00:56:10.708Z,4.07
2024-04-25T00:58:41.788Z,2.70
2024-04-25T01:01:14.189Z,3.45
2024-04-25T01:03:45.092Z,3.53
2024-04-25T01:06:22.258Z,4.38
2024-04-25T01:08:52.309Z,5.63
2024-04-25T01:11:22.279Z,5.03
2024-04-25T01:13:52.164Z,5.88
2024-04-25T01:16:21.947Z,6.78
2024-04-25T01:18:51.895Z,3.33
2024-04-25T01:21:24.435Z,2.78
2024-04-25T01:23:57.081Z,4.63
2024-04-25T01:26:30.029Z,4.65
2024-04-25T01:29:02.130Z,8.07
2024-04-25T01:31:32.010Z,5.15
2024-04-25T01:34:02.470Z,8.38
2024-04-25T01:36:32.484Z,2.88
2024-04-25T01:39:02.288Z,4.80
2024-04-25T01:41:34.842Z,2.90
2024-04-25T01:44:05.009Z,5.47
2024-04-25T01:46:35.095Z,8.23
2024-04-25T01:49:05.074Z,7.60
2024-04-25T01:51:34.859Z,8.23
2024-04-25T01:54:04.700Z,5.40
2024-04-25T01:56:37.486Z,5.95
2024-04-25T01:59:07.591Z,5.00
2024-04-25T02:01:37.383Z,6.47
2024-04-25T02:04:07.283Z,5.68
2024-04-25T02:06:37.095Z,6.93
2024-04-25T02:09:07.045Z,6.32
2024-04-25T02:11:39.556Z,4.65
2024-04-25T02:14:09.522Z,7.95
2024-04-25T02:16:39.317Z,4.68
2024-04-25T02:19:09.467Z,5.00
2024-04-25T02:21:55.040Z,4.80
2024-04-25T02:24:40.657Z,5.72
2024-04-25T02:27:13.144Z,8.38
2024-04-25T02:29:43.073Z,3.42
2024-04-25T02:32:13.163Z,4.18
2024-04-25T02:34:42.957Z,5.38
2024-04-25T02:37:12.684Z,4.13
2024-04-25T02:39:43.292Z,6.43
2024-04-25T02:42:15.773Z,3.80
2024-04-25T02:44:45.745Z,7.43
2024-04-25T02:47:12.954Z,6.70
2024-04-25T02:49:42.813Z,3.35
2024-04-25T02:52:10.063Z,5.88
2024-04-25T02:54:39.870Z,5.55
2024-04-25T02:57:07.161Z,4.50
2024-04-25T02:59:39.714Z,6.53
2024-04-25T03:02:07.795Z,5.88
2024-04-25T03:04:37.740Z,5.18
2024-04-25T03:07:05.183Z,5.15
2024-04-25T03:09:34.976Z,7.80
2024-04-25T03:12:02.535Z,7.53
2024-04-25T03:14:32.611Z,8.10
2024-04-25T03:17:02.394Z,8.15
2024-04-25T03:19:32.185Z,3.80
2024-04-25T03:21:59.408Z,5.35
2024-04-25T03:24:29.448Z,4.32
2024-04-25T03:26:56.805Z,7.40
2024-04-25T03:29:26.722Z,5.93
2024-04-25T03:31:54.148Z,4.15
2024-04-25T03:34:26.641Z,5.25
2024-04-25T03:36:57.836Z,4.50
2024-04-25T03:39:27.756Z,5.75
2024-04-25T03:41:57.854Z,5.22
2024-04-25T03:44:27.742Z,5.35
2024-04-25T03:46:58.175Z,6.68
2024-04-25T03:49:30.776Z,5.25
2024-04-25T03:52:00.829Z,4.90
2024-04-25T03:54:30.792Z,6.82
2024-04-25T03:57:00.951Z,3.55
2024-04-25T03:59:30.758Z,4.15
2024-04-25T04:02:01.009Z,5.25
2024-04-25T04:04:33.639Z,4.40
2024-04-25T04:07:03.627Z,4.80
2024-04-25T04:09:33.373Z,5.22
2024-04-25T04:12:04.216Z,4.05
2024-04-25T04:14:34.270Z,4.95
2024-04-25T04:17:04.118Z,6.90
2024-04-25T04:19:37.232Z,6.32
2024-04-25T04:22:07.540Z,4.88
2024-04-25T04:24:37.656Z,4.72
2024-04-25T04:27:07.443Z,8.40
2024-04-25T04:29:37.372Z,7.15
2024-04-25T04:32:07.613Z,6.50
2024-04-25T04:34:40.250Z,6.38
2024-04-25T04:37:10.071Z,5.38
2024-04-25T04:39:39.965Z,4.80
2024-04-25T04:42:09.805Z,5.13
2024-04-25T04:44:39.588Z,4.20
2024-04-25T04:47:10.947Z,5.05
2024-04-25T04:49:43.680Z,7.07
2024-04-25T04:52:13.646Z,5.13
2024-04-25T04:54:43.487Z,6.10
2024-04-25T04:57:13.381Z,4.75
2024-04-25T04:59:43.282Z,7.60
2024-04-25T05:02:13.116Z,7.38
2024-04-25T05:04:45.701Z,4.05
2024-04-25T05:07:15.803Z,6.60
2024-04-25T05:09:45.738Z,5.03
2024-04-25T05:12:15.946Z,6.70
2024-04-25T05:14:46.013Z,7.75
2024-04-25T05:17:16.079Z,4.68
2024-04-25T05:19:48.545Z,8.57
2024-04-25T05:22:18.973Z,5.75
2024-04-25T05:24:49.020Z,5.07
2024-04-25T05:27:18.962Z,5.63
2024-04-25T05:29:50.587Z,5.60
2024-04-25T05:32:20.560Z,4.15
2024-04-25T05:34:56.635Z,6.80
2024-04-25T05:37:28.237Z,4.07
2024-04-25T05:39:58.376Z,4.88
2024-04-25T05:42:28.560Z,8.05
2024-04-25T05:44:58.512Z,5.72
2024-04-25T05:47:28.426Z,10.48
2024-04-25T05:50:01.121Z,6.65
2024-04-25T05:52:31.016Z,6.57
2024-04-25T05:55:02.021Z,7.00
2024-04-25T05:57:32.034Z,4.40
2024-04-25T06:00:01.898Z,7.28
2024-04-25T06:02:35.585Z,7.50
2024-04-25T06:05:08.621Z,4.53
2024-04-25T06:07:38.451Z,7.80
2024-04-25T06:10:09.248Z,6.28
2024-04-25T06:12:39.441Z,8.18
2024-04-25T06:15:09.840Z,6.47
2024-04-25T06:17:42.874Z,7.57
2024-04-25T06:20:17.897Z,8.45
2024-04-25T06:22:47.847Z,5.63
2024-04-25T06:25:17.739Z,6.00
2024-04-25T06:27:48.655Z,5.75
2024-04-25T06:30:18.724Z,7.32
2024-04-25T06:32:51.021Z,12.02
2024-04-25T06:35:23.534Z,9.20
2024-04-25T06:37:53.596Z,7.10
2024-04-25T06:40:23.464Z,7.18
2024-04-25T06:42:53.344Z,7.97
2024-04-25T06:45:23.321Z,4.95
2024-04-25T06:47:53.259Z,7.07
2024-04-25T06:50:25.777Z,6.43
2024-04-25T06:52:55.906Z,4.65
2024-04-25T06:55:25.858Z,4.45
2024-04-25T06:57:56.254Z,4.63
2024-04-25T07:00:26.199Z,5.10
2024-04-25T07:02:56.529Z,5.65
2024-04-25T07:05:29.331Z,4.57
2024-04-25T07:07:59.740Z,6.68
2024-04-25T07:10:29.710Z,5.45
2024-04-25T07:12:59.454Z,6.65
2024-04-25T07:15:29.358Z,5.57
2024-04-25T07:18:00.567Z,6.55
2024-04-25T07:20:33.599Z,6.93
2024-04-25T07:23:03.633Z,5.32
2024-04-25T07:25:33.493Z,6.32
2024-04-25T07:28:03.786Z,6.72
2024-04-25T07:30:33.666Z,5.38
2024-04-25T07:33:03.699Z,7.03
2024-04-25T07:35:36.316Z,7.18
2024-04-25T07:38:06.647Z,6.85
2024-04-25T07:40:38.432Z,6.53
2024-04-25T07:43:08.982Z,6.00
2024-04-25T07:45:39.028Z,7.72
2024-04-25T07:48:09.856Z,6.88
2024-04-25T07:50:42.585Z,6.18
2024-04-25T07:53:12.756Z,6.75
2024-04-25T07:55:44.204Z,6.38
2024-04-25T07:58:14.437Z,7.45
2024-04-25T08:00:45.886Z,9.73
2024-04-25T08:03:16.058Z,5.25
2024-04-25T08:05:49.550Z,8.55
2024-04-25T08:08:22.723Z,8.68
2024-04-25T08:10:54.911Z,7.25
2024-04-25T08:13:25.979Z,6.60
2024-04-25T08:15:56.002Z,9.35
2024-04-25T08:18:26.339Z,4.97
2024-04-25T08:21:00.647Z,6.22
2024-04-25T08:23:30.808Z,6.97
2024-04-25T08:26:01.038Z,6.10
2024-04-25T08:28:31.354Z,6.50
2024-04-25T08:31:01.258Z,8.20
2024-04-25T08:33:31.145Z,6.97
2024-04-25T08:36:03.851Z,9.35
2024-04-25T08:38:36.129Z,6.30
2024-04-25T08:41:07.009Z,6.85
2024-04-25T08:43:38.475Z,8.52
2024-04-25T08:46:10.510Z,6.65
2024-04-25T08:48:41.146Z,6.13
2024-04-25T08:51:15.209Z,5.78
2024-04-25T08:53:47.296Z,7.15
2024-04-25T08:56:18.022Z,6.38
2024-04-25T08:58:49.343Z,7.47
2024-04-25T09:01:21.727Z,7.85
2024-04-25T09:03:55.909Z,5.68
2024-04-25T09:06:28.358Z,5.22
2024-04-25T09:08:59.857Z,5.90
2024-04-25T09:11:29.859Z,5.15
2024-04-25T09:14:01.133Z,5.20
2024-04-25T09:16:31.216Z,5.32
2024-04-25T09:19:01.265Z,5.15
2024-04-25T09:21:34.046Z,11.23
2024-04-25T09:24:04.208Z,5.20
2024-04-25T09:26:35.427Z,8.98
2024-04-25T09:29:05.544Z,8.48
2024-04-25T09:31:37.843Z,6.05
2024-04-25T09:34:08.475Z,6.13
2024-04-25T09:39:11.604Z,5.35
2024-04-25T09:41:42.751Z,8.40
2024-04-25T09:44:13.727Z,6.45
2024-04-25T09:46:49.480Z,7.15
2024-04-25T09:49:21.692Z,5.28
2024-04-25T09:52:01.038Z,5.78
2024-04-25T09:54:33.274Z,7.93
2024-04-25T09:57:09.432Z,5.80
2024-04-25T09:59:48.465Z,5.32
2024-04-25T10:02:20.809Z,6.78
2024-04-25T10:04:51.062Z,5.82
2024-04-25T10:07:24.401Z,6.32
2024-04-25T10:09:55.544Z,5.28
2024-04-25T10:12:26.387Z,5.78
2024-04-25T10:15:01.574Z,5.53
2024-04-25T10:17:33.524Z,7.05
2024-04-25T10:20:05.757Z,5.03
2024-04-25T10:22:42.161Z,6.75
2024-04-25T10:25:17.106Z,5.68
2024-04-25T10:27:47.173Z,5.72
2024-04-25T10:30:19.008Z,5.40
2024-04-25T10:32:49.601Z,4.43
2024-04-25T10:35:19.693Z,5.72
2024-04-25T10:37:54.131Z,7.03
2024-04-25T10:40:29.937Z,7.18
2024-04-25T10:43:04.787Z,7.13
2024-04-25T10:45:37.978Z,8.38
2024-04-25T10:48:11.164Z,5.95
2024-04-25T10:50:41.961Z,6.05
2024-04-25T10:55:45.464Z,5.40
2024-04-25T10:58:17.343Z,5.03
2024-04-25T11:00:48.914Z,6.43
2024-04-25T11:03:19.531Z,6.18
2024-04-25T11:05:49.766Z,5.40
2024-04-25T11:08:23.092Z,5.97
2024-04-25T11:10:53.235Z,5.43
2024-04-25T11:13:23.093Z,5.05
2024-04-25T11:16:02.034Z,4.28
2024-04-25T11:18:33.717Z,7.28
2024-04-25T11:21:05.382Z,6.70
2024-04-25T11:23:38.164Z,8.23
2024-04-25T11:26:08.451Z,6.10
2024-04-25T11:28:38.498Z,7.43
2024-04-25T11:31:10.368Z,8.57
2024-04-25T11:33:41.495Z,6.65
2024-04-25T11:36:11.706Z,7.15
2024-04-25T11:38:44.912Z,8.32
2024-04-25T11:41:14.955Z,8.52
2024-04-25T11:43:44.766Z,8.43
2024-04-25T11:46:14.677Z,7.45
2024-04-25T11:48:50.912Z,8.55
2024-04-25T11:51:21.153Z,8.75
2024-04-25T11:53:53.754Z,6.95
2024-04-25T11:56:24.063Z,7.35
2024-04-25T11:58:55.110Z,6.15
2024-04-25T12:01:25.457Z,5.38
2024-04-25T12:03:55.451Z,6.15
2024-04-25T12:06:27.074Z,6.80
2024-04-25T12:09:01.004Z,7.50
2024-04-25T12:11:36.876Z,6.75
2024-04-25T12:14:08.085Z,6.63
2024-04-25T12:16:38.065Z,6.90
2024-04-25T12:19:07.877Z,7.00
2024-04-25T12:21:37.894Z,6.30
2024-04-25T12:24:10.533Z,8.43
2024-04-25T12:26:40.568Z,7.15
2024-04-25T12:29:10.412Z,6.20
2024-04-25T12:31:40.440Z,6.30
2024-04-25T12:34:13.725Z,9.07
2024-04-25T12:36:44.896Z,6.97
2024-04-25T12:39:18.694Z,6.57
2024-04-25T12:41:52.635Z,6.05
2024-04-25T12:44:22.608Z,5.72
2024-04-25T12:46:52.632Z,5.25
2024-04-25T12:49:34.431Z,6.55
2024-04-25T12:52:04.646Z,7.68
2024-04-25T12:54:37.808Z,5.28
2024-04-25T12:57:08.338Z,7.80
2024-04-25T12:59:38.345Z,5.60
2024-04-25T13:02:08.178Z,6.70
2024-04-25T13:04:35.661Z,7.57
2024-04-25T13:07:05.445Z,5.18
2024-04-25T13:09:38.089Z,5.75
2024-04-25T13:12:08.432Z,5.35
2024-04-25T13:14:38.415Z,6.97
2024-04-25T13:17:08.368Z,6.00
2024-04-25T13:19:38.157Z,6.45
2024-04-25T13:22:09.207Z,6.78
2024-04-25T13:24:42.661Z,7.68
2024-04-25T13:27:12.702Z,6.82
2024-04-25T13:29:44.802Z,6.90
2024-04-25T13:32:14.799Z,6.30
2024-04-25T13:34:44.861Z,7.70
2024-04-25T13:37:14.733Z,6.25
2024-04-25T13:39:47.704Z,6.65
2024-04-25T13:42:17.607Z,7.15
2024-04-25T13:44:47.502Z,5.28
2024-04-25T13:47:17.427Z,4.70
2024-04-25T13:49:47.660Z,5.00
2024-04-25T13:52:17.450Z,4.70
2024-04-25T13:54:50.055Z,4.63
2024-04-25T13:57:19.952Z,4.57
2024-04-25T13:59:49.764Z,5.18
2024-04-25T14:02:19.785Z,5.28
2024-04-25T14:04:49.573Z,6.75
2024-04-25T14:07:19.551Z,5.13
2024-04-25T14:09:52.001Z,4.43
2024-04-25T14:12:22.935Z,5.03
2024-04-25T14:14:53.745Z,7.05
2024-04-25T14:17:23.654Z,6.13
2024-04-25T14:19:53.935Z,4.85
2024-04-25T14:22:23.869Z,6.60
2024-04-25T14:25:01.754Z,5.97
2024-04-25T14:27:47.641Z,4.72
2024-04-25T14:30:17.580Z,5.50
2024-04-25T14:32:47.493Z,5.35
2024-04-25T14:35:17.430Z,8.27
2024-04-25T14:37:47.243Z,4.13
2024-04-25T14:40:26.081Z,3.20
2024-04-25T14:42:55.987Z,5.47
2024-04-25T14:45:26.251Z,4.15
2024-04-25T14:47:56.351Z,4.10
2024-04-25T14:50:26.675Z,3.30
2024-04-25T14:52:56.474Z,2.88
2024-04-25T14:55:29.326Z,3.03
2024-04-25T14:57:59.150Z,2.58
2024-04-25T15:00:29.123Z,4.93
2024-04-25T15:02:58.994Z,3.47
2024-04-25T15:05:28.964Z,4.22
2024-04-25T15:07:58.726Z,5.38
2024-04-25T15:10:32.941Z,4.22
2024-04-25T15:13:02.959Z,4.38
2024-04-25T15:15:34.344Z,4.82
2024-04-25T15:18:04.733Z,4.40
2024-04-25T15:20:34.762Z,5.50
2024-04-25T15:23:05.398Z,4.13
2024-04-25T15:28:09.412Z,5.35
2024-04-25T15:30:40.340Z,6.80
2024-04-25T15:33:10.626Z,5.22
2024-04-25T15:35:40.596Z,5.20
2024-04-25T15:38:10.440Z,6.05
2024-04-25T15:40:42.927Z,7.00
2024-04-25T15:43:13.019Z,5.45
2024-04-25T15:45:42.901Z,8.88
2024-04-25T15:48:13.542Z,7.65
2024-04-25T15:53:14.871Z,7.57
2024-04-25T15:55:47.444Z,8.38
2024-04-25T15:58:20.803Z,6.82
2024-04-25T16:00:50.836Z,7.07
2024-04-25T16:03:21.320Z,5.25
2024-04-25T16:05:51.634Z,6.22
2024-04-25T16:08:21.569Z,6.05
2024-04-25T16:10:54.117Z,9.45
2024-04-25T16:13:23.991Z,7.57
2024-04-25T16:15:53.740Z,8.27
2024-04-25T16:18:23.552Z,6.72
2024-04-25T16:20:54.103Z,7.18
2024-04-25T16:23:24.033Z,7.32
2024-04-25T16:25:56.696Z,8.30
2024-04-25T16:28:26.475Z,6.80
2024-04-25T16:30:57.018Z,7.45
2024-04-25T16:33:27.282Z,7.15
2024-04-25T16:35:59.155Z,8.10
2024-04-25T16:38:29.125Z,5.45
2024-04-25T16:41:01.847Z,5.45
2024-04-25T16:43:34.773Z,5.65
2024-04-25T16:46:04.784Z,4.38
2024-04-25T16:48:34.992Z,4.45
2024-04-25T16:51:05.420Z,5.22
2024-04-25T16:53:35.291Z,5.18
2024-04-25T16:56:08.793Z,4.97
2024-04-25T16:58:38.673Z,4.65
2024-04-25T17:01:08.709Z,4.35
2024-04-25T17:03:39.743Z,4.30
2024-04-25T17:06:12.947Z,4.65
2024-04-25T17:08:42.782Z,4.38
2024-04-25T17:11:28.149Z,5.35
2024-04-25T17:14:00.797Z,5.22
2024-04-25T17:16:30.866Z,4.88
2024-04-25T17:19:01.368Z,5.63
2024-04-25T17:24:03.586Z,4.97
2024-04-25T17:26:36.106Z,6.55
2024-04-25T17:29:07.740Z,5.82
2024-04-25T17:31:38.362Z,5.45
2024-04-25T17:34:08.321Z,5.28
2024-04-25T17:36:38.224Z,5.72
2024-04-25T17:39:08.082Z,5.40
2024-04-25T17:41:40.571Z,6.07
2024-04-25T17:44:10.627Z,6.57
2024-04-25T17:46:40.422Z,9.85
2024-04-25T17:49:11.394Z,6.22
2024-04-25T17:51:43.202Z,7.22
2024-04-25T17:54:13.202Z,6.18
2024-04-25T17:56:46.282Z,6.80
2024-04-25T17:59:16.243Z,6.15
2024-04-25T18:01:48.007Z,8.68
2024-04-25T18:04:18.104Z,5.70
2024-04-25T18:06:48.016Z,6.55
2024-04-25T18:09:17.957Z,6.72
2024-04-25T18:11:50.393Z,7.53
2024-04-25T18:14:20.502Z,6.93
2024-04-25T18:16:50.343Z,7.85
2024-04-25T18:19:20.132Z,7.38
2024-04-25T18:21:51.655Z,7.32
2024-04-25T18:24:23.277Z,8.25
2024-04-25T18:26:55.832Z,9.30
2024-04-25T18:29:26.839Z,7.38
2024-04-25T18:34:26.311Z,7.43
2024-04-25T18:36:56.132Z,7.18
2024-04-25T18:39:26.036Z,8.73
2024-04-25T18:41:58.607Z,10.25
2024-04-25T18:44:28.485Z,8.98
2024-04-25T18:46:58.408Z,7.18
2024-04-25T18:49:28.292Z,7.35
2024-04-25T18:52:00.313Z,7.35
2024-04-25T18:54:30.596Z,6.90
2024-04-25T18:57:03.014Z,11.43
2024-04-25T18:59:32.956Z,6.70
2024-04-25T19:02:03.075Z,6.78
2024-04-25T19:04:32.885Z,8.48
2024-04-25T19:07:04.320Z,6.95
2024-04-25T19:09:34.668Z,9.25
2024-04-25T19:12:07.633Z,6.57
2024-04-25T19:14:37.723Z,9.20
2024-04-25T19:17:09.859Z,7.63
2024-04-25T19:19:39.827Z,6.88
2024-04-25T19:22:09.938Z,7.55
2024-04-25T19:24:39.770Z,7.13
2024-04-25T19:27:12.440Z,6.93
2024-04-25T19:29:42.329Z,7.15
2024-04-25T19:32:12.090Z,9.93
2024-04-25T19:34:41.965Z,6.28
2024-04-25T19:37:11.777Z,8.77
2024-04-25T19:39:41.554Z,9.20
2024-04-25T19:42:16.403Z,7.80
2024-04-25T19:44:46.303Z,8.55
2024-04-25T19:47:13.462Z,9.00
2024-04-25T19:49:43.646Z,8.70
2024-04-25T19:52:14.002Z,9.27
2024-04-25T19:54:43.843Z,9.45
2024-04-25T19:57:18.061Z,7.82
2024-04-25T19:59:47.989Z,10.00
2024-04-25T20:02:20.527Z,6.95
2024-04-25T20:04:50.569Z,9.35
2024-04-25T20:07:20.615Z,9.55
2024-04-25T20:09:50.327Z,8.60
2024-04-25T20:12:22.867Z,9.05
2024-04-25T20:14:53.761Z,11.90
2024-04-25T20:17:41.254Z,10.35
2024-04-25T20:20:27.397Z,8.48
2024-04-25T20:22:57.314Z,9.50
2024-04-25T20:25:27.051Z,9.23
2024-04-25T20:27:59.564Z,10.10
2024-04-25T20:30:29.578Z,11.43
2024-04-25T20:32:59.439Z,9.90
2024-04-25T20:35:29.445Z,9.98
2024-04-25T20:37:59.293Z,12.18
2024-04-25T20:40:29.068Z,9.93
2024-04-25T20:43:01.555Z,10.70
2024-04-25T20:45:31.676Z,10.63
2024-04-25T20:48:01.697Z,10.65
2024-04-25T20:50:31.617Z,10.77
2024-04-25T20:53:01.460Z,9.50
2024-04-25T20:55:31.224Z,9.77
2024-04-25T20:58:03.667Z,10.52
2024-04-25T21:00:33.526Z,9.63
2024-04-25T21:03:03.433Z,8.30
2024-04-25T21:05:33.341Z,9.23
2024-04-25T21:08:03.201Z,9.23
2024-04-25T21:10:33.014Z,11.48
2024-04-25T21:13:05.604Z,8.90
2024-04-25T21:15:35.565Z,9.25
2024-04-25T21:18:05.468Z,10.25
2024-04-25T21:20:35.304Z,10.30
2024-04-25T21:23:05.217Z,9.82
2024-04-25T21:25:44.817Z,9.77
2024-04-25T21:28:20.801Z,9.65
2024-04-25T21:30:50.978Z,10.88
2024-04-25T21:33:21.703Z,11.68
2024-04-25T21:38:21.979Z,9.30
2024-04-25T21:40:51.893Z,11.00
2024-04-25T21:43:26.768Z,8.85
2024-04-25T21:45:56.922Z,11.05
2024-04-25T21:48:26.886Z,8.93
2024-04-25T21:50:56.789Z,9.95
2024-04-25T21:53:26.634Z,10.32
2024-04-25T21:55:56.474Z,9.80
2024-04-25T21:58:28.926Z,11.30
2024-04-25T22:00:58.801Z,8.95
2024-04-25T22:03:28.901Z,10.63
2024-04-25T22:05:58.697Z,10.90
2024-04-25T22:08:28.704Z,10.25
2024-04-25T22:10:58.516Z,11.57
2024-04-25T22:13:34.116Z,10.75
2024-04-25T22:16:04.100Z,9.68
2024-04-25T22:18:35.120Z,9.18
2024-04-25T22:21:05.517Z,10.93
2024-04-25T22:23:35.419Z,11.10
2024-04-25T22:26:05.257Z,11.88
2024-04-25T22:28:37.654Z,12.02
2024-04-25T22:31:08.005Z,11.35
2024-04-25T22:33:37.971Z,11.85
2024-04-25T22:36:10.167Z,11.18
2024-04-25T22:38:40.144Z,12.30
2024-04-25T22:41:10.027Z,9.95
2024-04-25T22:43:42.524Z,14.55
2024-04-25T22:46:13.527Z,11.23
2024-04-25T22:48:43.519Z,17.15
2024-04-25T22:51:13.623Z,11.27
2024-04-25T22:53:43.681Z,12.38
2024-04-25T22:56:13.633Z,13.55
2024-04-25T22:58:46.153Z,11.98
2024-04-25T23:01:16.080Z,13.68
2024-04-25T23:03:45.903Z,12.05
2024-04-25T23:06:15.993Z,12.18
2024-04-25T23:08:45.891Z,12.18
2024-04-25T23:11:15.824Z,12.30
2024-04-25T23:13:48.372Z,12.90
2024-04-25T23:16:19.040Z,13.95
2024-04-25T23:18:49.060Z,15.30
2024-04-25T23:21:18.922Z,12.85
2024-04-25T23:23:48.742Z,13.05
2024-04-25T23:26:15.963Z,11.45
2024-04-25T23:28:48.424Z,11.10
2024-04-25T23:31:21.990Z,12.75
2024-04-25T23:33:51.978Z,11.82
2024-04-25T23:36:23.772Z,11.48
2024-04-25T23:38:53.719Z,13.68
2024-04-25T23:41:23.769Z,12.57
2024-04-25T23:43:56.337Z,12.43
2024-04-25T23:46:26.442Z,12.90
2024-04-25T23:48:56.417Z,13.35
2024-04-25T23:51:26.688Z,13.82
2024-04-25T23:53:56.652Z,12.45
2024-04-25T23:56:26.497Z,14.40
2024-04-25T23:58:59.193Z,14.60
